createdAt,value
2022-11-25T00:01:23.932Z,2.65
2022-11-25T00:08:14.539Z,2.95
2022-11-25T00:10:42.014Z,2.55
2022-11-25T00:13:09.504Z,3.15
2022-11-25T00:15:36.925Z,2.55
2022-11-25T00:18:04.418Z,2.35
2022-11-25T00:20:31.879Z,2.80
2022-11-25T00:22:59.263Z,3.63
2022-11-25T00:25:26.680Z,2.67
2022-11-25T00:27:54.055Z,2.90
2022-11-25T00:30:21.444Z,3.10
2022-11-25T00:32:48.820Z,2.38
2022-11-25T00:35:16.216Z,3.90
2022-11-25T00:37:43.633Z,3.20
2022-11-25T00:40:11.654Z,5.40
2022-11-25T00:42:57.552Z,3.42
2022-11-25T00:45:25.034Z,3.35
2022-11-25T00:47:54.310Z,3.65
2022-11-25T00:50:21.755Z,3.20
2022-11-25T00:52:49.202Z,2.60
2022-11-25T00:55:16.720Z,2.55
2022-11-25T00:57:44.131Z,2.95
2022-11-25T01:00:12.909Z,2.38
2022-11-25T01:02:40.500Z,3.08
2022-11-25T01:05:08.199Z,2.95
2022-11-25T01:12:09.295Z,3.00
2022-11-25T01:14:37.305Z,3.10
2022-11-25T01:17:05.248Z,3.08
2022-11-25T01:19:32.965Z,2.97
2022-11-25T01:22:00.426Z,2.67
2022-11-25T01:24:27.833Z,2.97
2022-11-25T01:26:56.083Z,2.50
2022-11-25T01:29:23.503Z,2.40
2022-11-25T01:31:51.248Z,2.97
2022-11-25T01:34:21.368Z,3.20
2022-11-25T01:36:48.959Z,3.38
2022-11-25T01:39:19.321Z,2.75
2022-11-25T01:41:47.445Z,2.75
2022-11-25T01:44:19.317Z,2.47
2022-11-25T01:46:59.183Z,2.38
2022-11-25T01:49:32.169Z,2.72
2022-11-25T01:52:20.509Z,2.17
2022-11-25T01:54:59.802Z,3.63
2022-11-25T01:57:39.335Z,3.53
2022-11-25T02:00:07.903Z,2.58
2022-11-25T02:02:36.002Z,3.60
2022-11-25T02:05:08.845Z,3.05
2022-11-25T02:07:39.556Z,3.60
2022-11-25T02:10:18.105Z,3.08
2022-11-25T02:12:46.597Z,2.20
2022-11-25T02:15:15.430Z,2.75
2022-11-25T02:17:44.123Z,3.13
2022-11-25T02:20:13.279Z,2.78
2022-11-25T02:22:52.539Z,2.90
2022-11-25T02:25:31.235Z,2.40
2022-11-25T02:28:12.678Z,3.15
2022-11-25T02:30:40.374Z,3.97
2022-11-25T02:33:08.423Z,3.95
2022-11-25T02:35:38.186Z,2.70
2022-11-25T02:38:16.617Z,3.70
2022-11-25T02:40:59.945Z,2.70
2022-11-25T02:43:28.036Z,3.10
2022-11-25T02:46:07.747Z,3.92
2022-11-25T02:49:07.531Z,2.45
2022-11-25T02:51:28.634Z,3.83
2022-11-25T02:53:56.881Z,3.60
2022-11-25T02:56:27.002Z,4.13
2022-11-25T02:58:54.457Z,2.90
2022-11-25T03:01:22.230Z,3.55
2022-11-25T03:03:49.706Z,4.10
2022-11-25T03:06:17.173Z,2.80
2022-11-25T03:08:44.621Z,3.22
2022-11-25T03:11:12.157Z,1.92
2022-11-25T03:13:39.629Z,3.38
2022-11-25T03:16:07.594Z,3.58
2022-11-25T03:18:35.037Z,3.08
2022-11-25T03:21:02.886Z,3.35
2022-11-25T03:23:30.366Z,2.78
2022-11-25T03:25:57.895Z,2.53
2022-11-25T03:28:25.418Z,2.70
2022-11-25T03:30:52.848Z,3.00
2022-11-25T03:33:20.304Z,3.33
2022-11-25T03:35:49.169Z,2.38
2022-11-25T03:38:16.547Z,2.20
2022-11-25T03:40:43.979Z,3.88
2022-11-25T03:43:11.374Z,3.03
2022-11-25T03:45:38.935Z,2.55
2022-11-25T03:48:06.425Z,3.50
2022-11-25T03:50:33.830Z,3.15
2022-11-25T03:53:01.218Z,2.45
2022-11-25T03:55:28.787Z,3.45
2022-11-25T03:57:56.162Z,4.20
2022-11-25T04:00:23.684Z,3.08
2022-11-25T04:02:51.116Z,2.97
2022-11-25T04:05:18.541Z,3.03
2022-11-25T04:07:46.193Z,3.03
2022-11-25T04:10:13.678Z,2.25
2022-11-25T04:12:47.057Z,4.22
2022-11-25T04:15:16.180Z,2.40
2022-11-25T04:17:43.996Z,3.25
2022-11-25T04:20:14.186Z,2.70
2022-11-25T04:22:42.085Z,2.72
2022-11-25T04:25:10.118Z,3.40
2022-11-25T04:27:37.564Z,3.97
2022-11-25T04:30:06.156Z,2.50
2022-11-25T04:32:33.589Z,3.33
2022-11-25T04:35:00.955Z,3.17
2022-11-25T04:37:28.343Z,3.45
2022-11-25T04:39:55.788Z,2.97
2022-11-25T04:42:32.025Z,2.60
2022-11-25T04:45:21.893Z,2.78
2022-11-25T04:47:48.188Z,2.75
2022-11-25T04:50:18.743Z,2.78
2022-11-25T04:52:46.154Z,3.15
2022-11-25T04:55:13.576Z,3.92
2022-11-25T04:57:41.149Z,3.10
2022-11-25T05:00:09.625Z,1.85
2022-11-25T05:02:37.257Z,3.55
2022-11-25T05:05:05.453Z,2.80
2022-11-25T05:07:33.005Z,2.58
2022-11-25T05:10:00.503Z,3.95
2022-11-25T05:12:29.570Z,3.30
2022-11-25T05:14:57.682Z,2.65
2022-11-25T05:17:30.586Z,2.58
2022-11-25T05:19:58.666Z,3.85
2022-11-25T05:22:29.086Z,2.97
2022-11-25T05:24:58.055Z,2.83
2022-11-25T05:27:26.828Z,2.55
2022-11-25T05:29:56.180Z,3.00
2022-11-25T05:32:23.977Z,2.97
2022-11-25T05:34:51.369Z,2.63
2022-11-25T05:37:23.930Z,2.80
2022-11-25T05:39:51.890Z,3.42
2022-11-25T05:42:19.357Z,2.63
2022-11-25T05:44:46.815Z,3.20
2022-11-25T05:47:14.180Z,3.17
2022-11-25T05:49:41.629Z,2.70
2022-11-25T05:52:09.006Z,3.05
2022-11-25T05:54:36.755Z,3.65
2022-11-25T05:57:04.289Z,2.90
2022-11-25T05:59:31.703Z,2.25
2022-11-25T06:01:59.143Z,2.20
2022-11-25T06:04:26.628Z,3.28
2022-11-25T06:06:54.040Z,3.03
2022-11-25T06:09:21.831Z,2.70
2022-11-25T06:11:49.726Z,2.70
2022-11-25T06:14:20.444Z,2.92
2022-11-25T06:16:47.835Z,3.30
2022-11-25T06:19:15.210Z,3.03
2022-11-25T06:21:42.618Z,2.75
2022-11-25T06:24:10.075Z,2.92
2022-11-25T06:26:37.482Z,2.00
2022-11-25T06:29:04.965Z,2.80
2022-11-25T06:31:32.459Z,2.85
2022-11-25T06:33:59.932Z,2.92
2022-11-25T06:36:27.427Z,2.90
2022-11-25T06:38:54.965Z,2.30
2022-11-25T06:41:23.167Z,2.13
2022-11-25T06:43:51.226Z,2.65
2022-11-25T06:46:24.425Z,3.47
2022-11-25T06:48:55.513Z,2.63
2022-11-25T06:51:24.557Z,2.47
2022-11-25T06:53:53.039Z,2.10
2022-11-25T06:56:22.309Z,2.72
2022-11-25T06:58:51.270Z,2.25
2022-11-25T07:01:28.067Z,3.50
2022-11-25T07:04:01.198Z,2.10
2022-11-25T07:06:29.061Z,1.98
2022-11-25T07:08:56.707Z,2.35
2022-11-25T07:11:32.849Z,2.90
2022-11-25T07:14:04.239Z,3.80
2022-11-25T07:16:32.255Z,3.47
2022-11-25T07:19:03.706Z,3.47
2022-11-25T07:21:32.535Z,3.03
2022-11-25T07:24:02.038Z,2.47
2022-11-25T07:26:32.299Z,2.72
2022-11-25T07:29:03.874Z,3.53
2022-11-25T07:31:34.703Z,2.38
2022-11-25T07:34:12.339Z,2.17
2022-11-25T07:36:40.201Z,2.30
2022-11-25T07:39:11.540Z,3.25
2022-11-25T07:41:39.389Z,3.65
2022-11-25T07:44:08.888Z,3.35
2022-11-25T07:46:39.583Z,2.67
2022-11-25T07:49:11.770Z,3.58
2022-11-25T07:51:42.381Z,1.80
2022-11-25T07:54:12.442Z,2.53
2022-11-25T07:56:41.695Z,2.50
2022-11-25T07:59:15.751Z,3.25
2022-11-25T08:01:43.514Z,2.88
2022-11-25T08:04:16.598Z,2.42
2022-11-25T08:06:50.024Z,2.70
2022-11-25T08:09:20.426Z,3.03
2022-11-25T08:11:48.562Z,2.72
2022-11-25T08:14:17.069Z,2.63
2022-11-25T08:16:45.018Z,2.75
2022-11-25T08:19:15.097Z,2.60
2022-11-25T08:21:42.588Z,2.30
2022-11-25T08:24:19.423Z,2.58
2022-11-25T08:26:47.807Z,2.17
2022-11-25T08:29:17.403Z,2.47
2022-11-25T08:31:44.884Z,5.03
2022-11-25T08:34:21.459Z,2.50
2022-11-25T08:36:49.217Z,2.47
2022-11-25T08:39:44.183Z,2.90
2022-11-25T08:42:07.043Z,2.30
2022-11-25T08:44:35.098Z,3.70
2022-11-25T08:47:02.670Z,2.65
2022-11-25T08:49:32.746Z,2.83
2022-11-25T08:52:03.732Z,2.63
2022-11-25T08:54:31.259Z,1.92
2022-11-25T08:57:00.750Z,2.13
2022-11-25T08:59:28.207Z,2.50
2022-11-25T09:01:55.873Z,2.83
2022-11-25T09:04:23.302Z,3.00
2022-11-25T09:06:50.804Z,2.15
2022-11-25T09:09:18.271Z,2.47
2022-11-25T09:11:45.761Z,2.40
2022-11-25T09:14:14.297Z,2.28
2022-11-25T09:16:41.861Z,3.03
2022-11-25T09:19:09.294Z,2.13
2022-11-25T09:21:36.719Z,3.30
2022-11-25T09:24:04.219Z,2.22
2022-11-25T09:26:35.767Z,1.95
2022-11-25T09:29:03.545Z,2.08
2022-11-25T09:31:31.179Z,2.80
2022-11-25T09:33:58.772Z,2.53
2022-11-25T09:36:26.539Z,2.08
2022-11-25T09:38:53.917Z,2.42
2022-11-25T09:41:56.878Z,2.10
2022-11-25T09:45:07.374Z,2.75
2022-11-25T09:47:49.723Z,2.25
2022-11-25T09:50:55.963Z,3.03
2022-11-25T09:53:52.151Z,2.60
2022-11-25T09:56:35.826Z,2.70
2022-11-25T09:59:12.859Z,2.50
2022-11-25T10:01:50.881Z,2.25
2022-11-25T10:04:28.922Z,2.70
2022-11-25T10:07:01.624Z,3.00
2022-11-25T10:09:32.305Z,2.25
2022-11-25T10:12:15.124Z,2.40
2022-11-25T10:14:49.896Z,2.35
2022-11-25T10:17:44.391Z,2.92
2022-11-25T10:20:12.431Z,3.38
2022-11-25T10:22:44.360Z,1.80
2022-11-25T10:25:18.298Z,1.83
2022-11-25T10:28:02.030Z,1.85
2022-11-25T10:30:45.905Z,2.67
2022-11-25T10:33:31.019Z,3.10
2022-11-25T10:36:06.130Z,1.90
2022-11-25T10:38:45.486Z,2.30
2022-11-25T10:41:23.484Z,1.98
2022-11-25T10:43:50.947Z,1.85
2022-11-25T10:46:43.363Z,3.05
2022-11-25T10:49:14.308Z,1.75
2022-11-25T10:51:50.248Z,2.40
2022-11-25T10:54:27.719Z,1.75
2022-11-25T10:56:56.949Z,2.08
2022-11-25T10:59:34.512Z,2.22
2022-11-25T11:02:23.746Z,2.45
2022-11-25T11:05:09.072Z,1.98
2022-11-25T11:07:44.099Z,2.55
2022-11-25T11:10:14.378Z,1.83
2022-11-25T11:12:59.206Z,2.78
2022-11-25T11:15:29.577Z,1.60
2022-11-25T11:17:59.413Z,2.05
2022-11-25T11:20:31.816Z,2.10
2022-11-25T11:23:11.779Z,2.13
2022-11-25T11:25:41.732Z,2.43
2022-11-25T11:28:27.609Z,2.58
2022-11-25T11:31:03.173Z,2.45
2022-11-25T11:33:30.634Z,2.03
2022-11-25T11:36:11.859Z,2.60
2022-11-25T11:41:44.124Z,1.58
2022-11-25T11:44:26.365Z,2.33
2022-11-25T11:47:17.869Z,2.42
2022-11-25T11:50:08.473Z,2.42
2022-11-25T11:52:59.092Z,1.88
2022-11-25T11:56:27.039Z,1.30
2022-11-25T11:58:55.198Z,1.67
2022-11-25T12:01:35.200Z,2.42
2022-11-25T12:04:26.318Z,2.13
2022-11-25T12:07:17.667Z,1.88
2022-11-25T12:09:53.774Z,1.90
2022-11-25T12:12:25.015Z,3.10
2022-11-25T12:15:02.650Z,1.90
2022-11-25T12:17:38.006Z,1.63
2022-11-25T12:20:15.986Z,2.08
2022-11-25T12:23:01.963Z,1.95
2022-11-25T12:25:41.308Z,2.55
2022-11-25T12:28:33.470Z,1.88
2022-11-25T12:31:18.622Z,1.63
2022-11-25T12:34:05.777Z,2.08
2022-11-25T12:36:39.205Z,2.13
2022-11-25T12:39:36.660Z,1.58
2022-11-25T12:42:13.629Z,2.83
2022-11-25T12:45:00.642Z,1.85
2022-11-25T12:47:28.133Z,2.25
2022-11-25T12:49:56.763Z,2.38
2022-11-25T12:52:44.247Z,2.08
2022-11-25T12:55:19.828Z,1.55
2022-11-25T12:58:05.305Z,2.25
2022-11-25T13:01:01.892Z,1.42
2022-11-25T13:04:06.721Z,1.70
2022-11-25T13:07:09.147Z,2.10
2022-11-25T13:09:42.569Z,2.00
2022-11-25T13:12:33.469Z,1.77
2022-11-25T13:17:57.927Z,2.03
2022-11-25T13:20:28.448Z,1.80
2022-11-25T13:23:11.435Z,1.55
2022-11-25T13:25:43.832Z,2.60
2022-11-25T13:28:29.230Z,1.75
2022-11-25T13:31:17.797Z,2.00
2022-11-25T13:33:45.228Z,2.20
2022-11-25T13:36:21.706Z,1.80
2022-11-25T13:38:49.082Z,1.98
2022-11-25T13:41:16.497Z,1.98
2022-11-25T13:44:14.432Z,2.05
2022-11-25T13:46:51.695Z,1.80
2022-11-25T13:49:33.859Z,1.80
2022-11-25T13:52:23.550Z,1.75
2022-11-25T13:54:54.029Z,1.80
2022-11-25T13:57:34.840Z,1.75
2022-11-25T14:00:07.261Z,1.67
2022-11-25T14:02:36.925Z,2.75
2022-11-25T14:05:28.297Z,2.13
2022-11-25T14:08:17.152Z,2.28
2022-11-25T14:11:21.795Z,2.33
2022-11-25T14:14:24.422Z,1.75
2022-11-25T14:17:27.286Z,3.38
2022-11-25T14:20:14.709Z,2.88
2022-11-25T14:22:53.743Z,2.10
2022-11-25T14:25:22.704Z,2.53
2022-11-25T14:28:00.982Z,2.92
2022-11-25T14:33:05.104Z,1.83
2022-11-25T14:35:48.240Z,2.15
2022-11-25T14:38:45.314Z,2.53
2022-11-25T14:42:05.379Z,2.88
2022-11-25T14:44:45.207Z,2.22
2022-11-25T14:47:12.554Z,2.55
2022-11-25T14:49:51.611Z,2.65
2022-11-25T14:52:28.455Z,2.72
2022-11-25T14:54:57.562Z,2.35
2022-11-25T14:57:28.252Z,2.67
2022-11-25T15:00:02.015Z,2.45
2022-11-25T15:02:35.341Z,1.80
2022-11-25T15:05:26.288Z,1.95
2022-11-25T15:07:59.653Z,2.00
2022-11-25T15:10:57.279Z,2.17
2022-11-25T15:13:35.770Z,2.30
2022-11-25T15:16:21.792Z,2.00
2022-11-25T15:18:58.500Z,2.35
2022-11-25T15:21:33.922Z,1.98
2022-11-25T15:24:02.826Z,2.15
2022-11-25T15:26:34.072Z,2.75
2022-11-25T15:29:12.985Z,2.92
2022-11-25T15:31:42.041Z,2.42
2022-11-25T15:34:13.222Z,2.30
2022-11-25T15:36:41.399Z,2.67
2022-11-25T15:39:20.556Z,3.10
2022-11-25T15:41:50.084Z,2.38
2022-11-25T15:44:32.091Z,2.28
2022-11-25T15:47:05.114Z,2.42
2022-11-25T15:49:35.862Z,2.75
2022-11-25T15:54:45.713Z,2.95
2022-11-25T15:57:24.097Z,2.95
2022-11-25T16:00:04.977Z,3.03
2022-11-25T16:02:34.171Z,2.08
2022-11-25T16:05:16.193Z,3.97
2022-11-25T16:07:52.681Z,2.40
2022-11-25T16:10:25.879Z,3.08
2022-11-25T16:13:21.844Z,2.72
2022-11-25T16:16:13.363Z,3.85
2022-11-25T16:18:52.731Z,3.63
2022-11-25T16:21:26.607Z,3.97
2022-11-25T16:24:11.442Z,3.75
2022-11-25T16:27:08.903Z,4.03
2022-11-25T16:29:48.266Z,2.92
2022-11-25T16:32:18.382Z,3.03
2022-11-25T16:34:46.124Z,3.77
2022-11-25T16:37:13.711Z,4.63
2022-11-25T16:39:41.324Z,4.18
2022-11-25T16:42:17.411Z,2.88
2022-11-25T16:44:50.924Z,3.58
2022-11-25T16:47:20.018Z,3.25
2022-11-25T16:49:47.607Z,3.80
2022-11-25T16:52:16.571Z,3.17
2022-11-25T16:54:44.653Z,3.72
2022-11-25T16:57:18.310Z,2.70
2022-11-25T16:59:50.268Z,3.47
2022-11-25T17:02:21.862Z,3.50
2022-11-25T17:04:49.543Z,3.47
2022-11-25T17:07:34.694Z,3.00
2022-11-25T17:10:02.997Z,4.22
2022-11-25T17:12:33.582Z,3.55
2022-11-25T17:15:02.813Z,3.55
2022-11-25T17:17:30.533Z,3.28
2022-11-25T17:19:57.971Z,3.13
2022-11-25T17:22:27.638Z,4.80
2022-11-25T17:24:55.002Z,3.72
2022-11-25T17:27:27.177Z,3.70
2022-11-25T17:29:55.888Z,3.55
2022-11-25T17:32:23.912Z,3.40
2022-11-25T17:34:51.518Z,3.83
2022-11-25T17:37:24.171Z,3.75
2022-11-25T17:39:54.778Z,3.22
2022-11-25T17:42:27.695Z,4.68
2022-11-25T17:44:55.244Z,3.90
2022-11-25T17:47:23.017Z,4.20
2022-11-25T17:49:50.475Z,4.25
2022-11-25T17:52:17.917Z,3.53
2022-11-25T17:54:45.403Z,4.97
2022-11-25T17:57:19.157Z,4.22
2022-11-25T17:59:46.644Z,4.05
2022-11-25T18:02:22.286Z,4.72
2022-11-25T18:04:49.966Z,3.78
2022-11-25T18:07:18.478Z,4.18
2022-11-25T18:09:46.067Z,3.75
2022-11-25T18:12:30.057Z,3.72
2022-11-25T18:14:57.701Z,3.55
2022-11-25T18:17:25.176Z,3.88
2022-11-25T18:19:55.293Z,4.60
2022-11-25T18:22:24.195Z,3.37
2022-11-25T18:24:52.601Z,5.15
2022-11-25T18:27:27.766Z,4.07
2022-11-25T18:29:56.512Z,3.47
2022-11-25T18:32:24.987Z,4.55
2022-11-25T18:34:52.423Z,4.38
2022-11-25T18:37:19.957Z,4.72
2022-11-25T18:39:47.374Z,3.90
2022-11-25T18:42:27.822Z,4.60
2022-11-25T18:44:56.131Z,4.47
2022-11-25T18:47:23.818Z,4.07
2022-11-25T18:49:55.980Z,4.32
2022-11-25T18:52:25.073Z,4.32
2022-11-25T18:54:52.683Z,3.63
2022-11-25T18:57:20.256Z,5.00
2022-11-25T19:00:04.875Z,4.10
2022-11-25T19:02:35.664Z,5.70
2022-11-25T19:05:17.950Z,3.70
2022-11-25T19:07:47.085Z,4.20
2022-11-25T19:10:16.443Z,4.75
2022-11-25T19:12:48.754Z,4.10
2022-11-25T19:15:19.300Z,4.65
2022-11-25T19:17:49.949Z,4.38
2022-11-25T19:20:20.360Z,5.18
2022-11-25T19:22:48.000Z,4.07
2022-11-25T19:25:15.791Z,4.97
2022-11-25T19:27:48.851Z,4.82
2022-11-25T19:30:22.477Z,4.78
2022-11-25T19:32:53.851Z,4.97
2022-11-25T19:35:31.360Z,4.10
2022-11-25T19:37:58.774Z,4.60
2022-11-25T19:40:26.408Z,6.00
2022-11-25T19:42:53.794Z,5.78
2022-11-25T19:45:22.049Z,5.55
2022-11-25T19:47:52.008Z,6.05
2022-11-25T19:50:25.661Z,5.97
2022-11-25T19:52:53.628Z,5.65
2022-11-25T19:55:23.506Z,5.97
2022-11-25T19:57:52.914Z,6.13
2022-11-25T20:00:22.404Z,4.63
2022-11-25T20:02:52.655Z,5.07
2022-11-25T20:05:31.502Z,5.30
2022-11-25T20:07:59.148Z,5.32
2022-11-25T20:10:30.243Z,7.22
2022-11-25T20:13:00.061Z,6.85
2022-11-25T20:15:27.801Z,5.43
2022-11-25T20:18:01.255Z,4.43
2022-11-25T20:20:33.220Z,5.18
2022-11-25T20:23:20.624Z,5.07
2022-11-25T20:25:49.352Z,4.75
2022-11-25T20:28:22.908Z,4.80
2022-11-25T20:30:51.304Z,5.40
2022-11-25T20:33:24.061Z,4.75
2022-11-25T20:35:56.990Z,4.72
2022-11-25T20:38:27.973Z,4.07
2022-11-25T20:40:57.999Z,4.25
2022-11-25T20:43:31.449Z,4.35
2022-11-25T20:46:02.629Z,3.95
2022-11-25T20:48:30.279Z,5.15
2022-11-25T20:51:02.834Z,4.93
2022-11-25T20:53:32.357Z,4.15
2022-11-25T20:56:00.288Z,5.75
2022-11-25T20:58:32.492Z,5.93
2022-11-25T21:01:00.077Z,5.60
2022-11-25T21:03:27.630Z,4.32
2022-11-25T21:05:56.991Z,4.95
2022-11-25T21:08:28.670Z,5.85
2022-11-25T21:10:58.123Z,5.03
2022-11-25T21:13:28.316Z,5.90
2022-11-25T21:15:59.517Z,5.13
2022-11-25T21:18:26.960Z,6.30
2022-11-25T21:20:56.557Z,5.25
2022-11-25T21:23:32.050Z,7.03
2022-11-25T21:26:11.770Z,6.22
2022-11-25T21:28:42.838Z,6.03
2022-11-25T21:33:40.843Z,6.47
2022-11-25T21:36:32.114Z,5.60
2022-11-25T21:41:33.114Z,6.00
2022-11-25T21:44:01.140Z,6.00
2022-11-25T21:46:28.974Z,5.47
2022-11-25T21:48:56.502Z,5.60
2022-11-25T21:51:26.558Z,4.93
2022-11-25T21:53:54.592Z,5.38
2022-11-25T21:56:28.797Z,5.85
2022-11-25T21:58:57.629Z,5.70
2022-11-25T22:01:25.046Z,5.95
2022-11-25T22:03:52.528Z,6.18
2022-11-25T22:10:48.072Z,4.25
2022-11-25T22:13:18.142Z,4.70
2022-11-25T22:15:46.076Z,4.13
2022-11-25T22:18:21.937Z,5.25
2022-11-25T22:20:53.234Z,4.45
2022-11-25T22:23:21.516Z,5.20
2022-11-25T22:25:50.219Z,4.35
2022-11-25T22:28:24.485Z,4.30
2022-11-25T22:30:54.629Z,5.05
2022-11-25T22:33:29.783Z,6.32
2022-11-25T22:35:57.362Z,4.40
2022-11-25T22:38:24.946Z,4.28
2022-11-25T22:40:56.480Z,6.38
2022-11-25T22:43:28.043Z,5.10
2022-11-25T22:45:56.318Z,5.25
2022-11-25T22:48:36.062Z,4.75
2022-11-25T22:51:04.334Z,4.30
2022-11-25T22:53:32.195Z,5.20
2022-11-25T22:56:00.072Z,5.30
2022-11-25T22:58:28.266Z,5.88
2022-11-25T23:00:56.992Z,4.35
2022-11-25T23:03:29.421Z,5.35
2022-11-25T23:05:57.223Z,5.50
2022-11-25T23:08:27.284Z,5.22
2022-11-25T23:10:56.221Z,4.90
2022-11-25T23:13:24.078Z,4.53
2022-11-25T23:15:56.754Z,4.78
2022-11-25T23:18:45.122Z,4.55
2022-11-25T23:21:29.109Z,6.65
2022-11-25T23:23:57.007Z,4.78
2022-11-25T23:29:11.227Z,4.63
2022-11-25T23:31:40.397Z,4.45
2022-11-25T23:34:08.087Z,4.57
2022-11-25T23:36:46.810Z,3.90
2022-11-25T23:39:20.401Z,4.15
2022-11-25T23:41:48.919Z,4.35
2022-11-25T23:44:26.762Z,4.45
2022-11-25T23:47:00.886Z,4.05
2022-11-25T23:49:33.258Z,4.88
2022-11-25T23:52:07.510Z,4.07
2022-11-25T23:54:41.215Z,3.85
2022-11-25T23:57:27.752Z,3.25
2022-11-25T23:59:55.125Z,4.40
